Time;durP1;ratioP1;P1;durP2;ratioP2;P2;SDS_P1;SDS_P2;PMS_P1;PMS_P2;Temp;Humidity;BMP_temperature;BMP_pressure;BME280_temperature;BME280_humidity;BME280_pressure;Samples;Min_cycle;Max_cycle;Signal;HPM_P1;HPM_P2
2020/12/28 00:02:06;;;;;;;15.70;9.90;;;;;;;20.55;40.89;96094.66;4995061;28;20042;-76
2020/12/28 00:04:32;;;;;;;18.50;10.48;;;;;;;20.58;40.97;96097.00;4994437;28;20125;-73
2020/12/28 00:06:57;;;;;;;12.90;8.93;;;;;;;20.57;40.89;96094.50;4994926;28;20142;-74
2020/12/28 00:09:22;;;;;;;14.50;9.13;;;;;;;20.55;40.85;96102.53;4994098;28;20066;-77
2020/12/28 00:11:53;;;;;;;15.07;9.50;;;;;;;20.57;40.67;96094.50;4994795;28;20038;-74
2020/12/28 00:14:19;;;;;;;12.18;8.63;;;;;;;20.56;40.72;96096.31;4994691;28;20084;-73
2020/12/28 00:16:44;;;;;;;14.95;8.77;;;;;;;20.58;40.92;96102.28;4993550;28;20074;-74
2020/12/28 00:19:12;;;;;;;12.52;8.60;;;;;;;20.54;40.85;96093.84;4994406;28;20113;-72
2020/12/28 00:21:37;;;;;;;12.48;8.27;;;;;;;20.56;40.79;96084.94;4994930;28;20042;-75
2020/12/28 00:24:02;;;;;;;12.88;7.97;;;;;;;20.54;40.72;96082.47;4994651;28;20042;-77
2020/12/28 00:26:28;;;;;;;14.32;8.40;;;;;;;20.51;40.75;96080.09;4993514;28;20038;-73
2020/12/28 00:28:53;;;;;;;14.18;7.88;;;;;;;20.53;40.73;96086.06;4994068;28;20079;-74
2020/12/28 00:31:19;;;;;;;10.85;7.05;;;;;;;20.54;40.82;96087.72;4993821;28;20042;-73
2020/12/28 00:33:44;;;;;;;11.57;8.20;;;;;;;20.52;40.82;96095.75;4994637;28;20049;-73
2020/12/28 00:36:14;;;;;;;11.63;7.28;;;;;;;20.49;40.74;96098.66;5015281;28;20442;-74
2020/12/28 00:38:40;;;;;;;10.73;7.10;;;;;;;20.52;40.74;96094.91;5033931;28;20056;-75
2020/12/28 00:41:09;;;;;;;10.23;7.13;;;;;;;20.51;40.73;96093.25;5033807;28;20510;-77
2020/12/28 00:43:35;;;;;;;8.43;5.82;;;;;;;20.53;40.86;96093.94;5033301;28;20044;-73
2020/12/28 00:46:00;;;;;;;11.68;6.80;;;;;;;20.51;40.94;96099.34;5000404;28;20031;-72
2020/12/28 00:48:25;;;;;;;10.75;7.10;;;;;;;20.47;40.83;96095.31;4992183;28;20030;-74
2020/12/28 00:50:50;;;;;;;8.73;5.45;;;;;;;20.45;40.87;96101.69;4993864;28;20061;-75
2020/12/28 00:53:16;;;;;;;8.50;5.60;;;;;;;20.44;41.09;96097.41;4994244;28;20041;-72
2020/12/28 00:55:41;;;;;;;9.15;5.75;;;;;;;20.42;41.00;96102.75;4994131;28;20030;-72
2020/12/28 00:58:07;;;;;;;8.05;5.25;;;;;;;20.41;41.02;96097.66;4992574;28;20081;-73
2020/12/28 01:00:32;;;;;;;9.15;5.30;;;;;;;20.39;41.02;96098.63;4994055;28;20058;-71
2020/12/28 01:02:57;;;;;;;10.00;6.00;;;;;;;20.39;40.86;96101.25;4992491;28;20038;-72
2020/12/28 01:05:23;;;;;;;7.55;5.07;;;;;;;20.41;41.04;96102.91;4993932;28;20035;-74
2020/12/28 01:07:48;;;;;;;7.47;4.70;;;;;;;20.40;40.84;96102.06;4994051;28;20431;-72
2020/12/28 01:10:13;;;;;;;7.90;4.68;;;;;;;20.42;40.61;96097.50;4994053;28;20042;-74
2020/12/28 01:12:39;;;;;;;9.00;5.05;;;;;;;20.46;40.93;96103.34;4993497;28;20038;-73
2020/12/28 01:15:04;;;;;;;8.27;5.13;;;;;;;20.46;40.86;96096.28;4993880;28;20392;-72
2020/12/28 01:17:30;;;;;;;9.77;5.43;;;;;;;20.47;40.91;96099.75;4993770;28;20118;-74
2020/12/28 01:19:55;;;;;;;7.18;4.38;;;;;;;20.51;40.74;96101.13;4993205;28;20491;-72
2020/12/28 01:22:20;;;;;;;6.35;4.50;;;;;;;20.52;40.78;96103.66;4993588;28;20035;-74
2020/12/28 01:24:46;;;;;;;7.10;4.22;;;;;;;20.51;40.74;96101.13;4992659;28;20039;-78
2020/12/28 01:27:11;;;;;;;7.70;3.92;;;;;;;20.50;40.98;96099.47;4993361;28;20038;-74
2020/12/28 01:29:36;;;;;;;7.28;4.28;;;;;;;20.53;40.78;96092.16;4993626;28;20038;-72
2020/12/28 01:32:02;;;;;;;7.10;3.72;;;;;;;20.52;40.77;96094.91;4993460;28;20034;-75
2020/12/28 01:34:27;;;;;;;5.38;3.67;;;;;;;20.49;40.71;96101.28;4993443;28;20042;-72
2020/12/28 01:36:53;;;;;;;6.53;3.83;;;;;;;20.49;40.79;96100.44;5025708;28;20118;-73
2020/12/28 01:39:18;;;;;;;7.75;4.43;;;;;;;20.50;40.85;96104.72;5032808;28;20113;-73
2020/12/28 01:41:43;;;;;;;6.30;4.15;;;;;;;20.48;41.04;96111.91;5032514;28;20139;-73
2020/12/28 01:44:09;;;;;;;6.03;3.42;;;;;;;20.46;40.87;96114.69;5029324;28;20131;-77
2020/12/28 01:46:35;;;;;;;6.32;3.55;;;;;;;20.48;40.87;96119.81;4993253;28;20143;-78
2020/12/28 01:49:01;;;;;;;4.95;3.45;;;;;;;20.45;40.79;96115.66;4992882;28;20038;-73
2020/12/28 01:51:27;;;;;;;6.80;3.50;;;;;;;20.49;40.86;96116.22;4993199;28;20031;-75
2020/12/28 01:53:53;;;;;;;4.47;3.10;;;;;;;20.50;40.84;96117.88;4993153;28;20549;-74
2020/12/28 01:56:21;;;;;;;5.90;3.00;;;;;;;20.50;40.88;96117.88;4992866;28;20046;-76
2020/12/28 01:58:46;;;;;;;6.32;3.30;;;;;;;20.49;40.66;96108.31;4992768;28;20034;-72
2020/12/28 02:01:15;;;;;;;7.25;3.50;;;;;;;20.48;40.80;96106.66;4992814;28;20038;-76
2020/12/28 02:03:40;;;;;;;6.00;3.00;;;;;;;20.51;41.01;96109.03;4992735;28;20038;-75
2020/12/28 02:06:05;;;;;;;4.82;2.75;;;;;;;20.49;40.80;96105.69;5007937;28;20030;-73
2020/12/28 02:08:31;;;;;;;5.35;3.22;;;;;;;20.49;40.74;96113.59;4992933;28;20064;-75
2020/12/28 02:10:56;;;;;;;4.68;2.83;;;;;;;20.48;40.86;96111.91;4992561;28;20081;-75
2020/12/28 02:13:22;;;;;;;4.50;2.42;;;;;;;20.44;41.01;96115.81;4992701;28;20042;-77
2020/12/28 02:15:47;;;;;;;4.00;2.72;;;;;;;20.41;40.77;96111.63;4992878;28;20226;-73
2020/12/28 02:18:14;;;;;;;5.22;3.50;;;;;;;20.40;41.05;96120.47;4992160;28;20070;-74
2020/12/28 02:20:40;;;;;;;3.92;2.30;;;;;;;20.41;40.99;96118.69;4992119;28;20042;-76
2020/12/28 02:23:05;;;;;;;4.60;2.40;;;;;;;20.40;41.28;96120.47;4992539;28;20049;-76
2020/12/28 02:25:31;;;;;;;3.97;2.47;;;;;;;20.38;40.93;96123.25;5006889;28;20053;-72
2020/12/28 02:27:56;;;;;;;3.45;2.45;;;;;;;20.40;41.00;96120.47;4992568;28;20034;-74
2020/12/28 02:30:22;;;;;;;3.55;2.42;;;;;;;20.40;40.98;96120.47;4992599;28;20041;-77
2020/12/28 02:32:47;;;;;;;3.70;2.35;;;;;;;20.38;40.87;96125.88;4992327;28;20231;-76
2020/12/28 02:35:13;;;;;;;5.63;2.40;;;;;;;20.38;40.93;96123.25;4997624;28;20206;-75
2020/12/28 02:37:38;;;;;;;3.25;2.00;;;;;;;20.39;40.95;96126.72;5031931;28;20091;-73
2020/12/28 02:40:04;;;;;;;3.00;2.10;;;;;;;20.44;40.94;96136.84;5031618;28;20041;-73
2020/12/28 02:42:29;;;;;;;3.90;2.50;;;;;;;20.45;40.86;96131.44;5031467;28;20042;-74
2020/12/28 02:44:55;;;;;;;3.50;1.90;;;;;;;20.46;40.69;96134.91;5015862;28;20037;-73
2020/12/28 02:47:20;;;;;;;3.20;1.67;;;;;;;20.48;40.86;96128.53;4992430;28;20115;-77
2020/12/28 02:49:45;;;;;;;4.00;2.25;;;;;;;20.49;40.80;96126.72;4992135;28;20612;-77
2020/12/28 02:52:11;;;;;;;3.17;1.88;;;;;;;20.48;40.79;96131.16;4992140;28;20073;-74
2020/12/28 02:54:36;;;;;;;4.30;2.00;;;;;;;20.47;40.44;96120.81;4992180;28;20048;-75
2020/12/28 02:57:02;;;;;;;3.10;2.08;;;;;;;20.47;40.75;96123.44;5007333;28;20114;-73
2020/12/28 02:59:27;;;;;;;2.90;1.67;;;;;;;20.45;40.79;96126.19;4992251;28;20117;-74
2020/12/28 03:01:52;;;;;;;3.10;1.80;;;;;;;20.45;40.76;96123.53;4991961;28;20034;-72
2020/12/28 03:04:18;;;;;;;3.67;2.08;;;;;;;20.45;40.76;96122.72;4992197;28;20410;-77
2020/12/28 03:06:43;;;;;;;4.38;1.83;;;;;;;20.44;40.84;96116.63;4992412;28;20042;-74
2020/12/28 03:09:09;;;;;;;3.78;2.00;;;;;;;20.45;40.82;96125.34;4991872;28;20034;-76
2020/12/28 03:11:37;;;;;;;2.97;1.95;;;;;;;20.43;40.85;96125.47;4993305;28;20101;-76
2020/12/28 03:14:04;;;;;;;3.03;1.33;;;;;;;20.45;40.73;96127.97;4996063;28;20026;-76
2020/12/28 03:16:29;;;;;;;2.33;1.40;;;;;;;20.46;40.86;96121.75;4996038;28;20065;-76
2020/12/28 03:18:55;;;;;;;3.33;2.00;;;;;;;20.43;40.89;96119.41;4994610;28;20074;-74
2020/12/28 03:21:20;;;;;;;3.40;1.50;;;;;;;20.41;40.90;96123.94;4996345;28;20038;-73
2020/12/28 03:23:46;;;;;;;2.67;1.52;;;;;;;20.41;40.80;96114.25;4995700;28;20034;-72
2020/12/28 03:26:12;;;;;;;2.45;1.48;;;;;;;20.43;40.78;96124.66;4996108;28;20061;-76
2020/12/28 03:28:37;;;;;;;2.85;1.10;;;;;;;20.45;40.70;96118.28;4995656;28;20410;-73
2020/12/28 03:31:03;;;;;;;1.98;1.35;;;;;;;20.46;40.82;96121.75;4995791;28;20038;-72
2020/12/28 03:33:28;;;;;;;2.45;1.30;;;;;;;20.45;40.84;96122.72;4995716;28;20125;-76
2020/12/28 03:35:53;;;;;;;3.40;1.70;;;;;;;20.45;40.68;96120.09;5011836;28;20048;-73
2020/12/28 03:38:19;;;;;;;2.08;1.15;;;;;;;20.41;40.98;96114.25;5035103;28;20046;-72
2020/12/28 03:40:44;;;;;;;2.10;1.38;;;;;;;20.39;40.90;96119.66;5034979;28;20040;-74
2020/12/28 03:43:10;;;;;;;2.15;1.20;;;;;;;20.44;40.55;96111.34;5034618;28;20454;-73
2020/12/28 03:45:35;;;;;;;1.98;1.35;;;;;;;20.43;40.78;96117.59;5008294;28;20108;-76
2020/12/28 03:48:00;;;;;;;2.40;1.33;;;;;;;20.40;40.93;96115.22;4995404;28;20067;-74
2020/12/28 03:50:26;;;;;;;1.75;1.20;;;;;;;20.40;40.91;96120.47;4995121;28;20042;-72
2020/12/28 03:52:51;;;;;;;1.80;1.20;;;;;;;20.36;40.81;96117.28;4995345;28;20114;-76
2020/12/28 03:55:17;;;;;;;2.17;1.13;;;;;;;20.36;40.85;96111.22;4994032;28;20026;-74
2020/12/28 03:57:42;;;;;;;2.25;1.23;;;;;;;20.39;40.92;96105.69;4995285;28;20062;-75
2020/12/28 04:00:08;;;;;;;1.40;1.00;;;;;;;20.37;41.01;96108.44;4995313;28;20170;-74
2020/12/28 04:02:33;;;;;;;1.85;1.17;;;;;;;20.38;40.94;96098.75;4994977;28;20039;-77
2020/12/28 04:04:59;;;;;;;1.45;0.90;;;;;;;20.38;40.66;96114.53;4994655;28;20038;-76
2020/12/28 04:07:24;;;;;;;1.63;1.00;;;;;;;20.35;40.87;96113.00;4995105;28;20042;-72
2020/12/28 04:09:50;;;;;;;1.20;0.75;;;;;;;20.34;40.82;96106.06;4995288;28;20054;-72
2020/12/28 04:12:15;;;;;;;3.30;1.40;;;;;;;20.39;40.91;96119.66;4995009;28;20050;-78
2020/12/28 04:14:41;;;;;;;3.00;1.02;;;;;;;20.39;40.80;96110.94;5010044;28;20035;-74
2020/12/28 04:17:06;;;;;;;1.20;0.80;;;;;;;20.34;40.72;96116.56;4994784;28;20174;-77
2020/12/28 04:19:31;;;;;;;2.42;1.30;;;;;;;20.33;41.06;96117.53;4993185;28;20117;-73
2020/12/28 04:21:57;;;;;;;1.58;0.98;;;;;;;20.35;40.94;96117.44;4994845;28;20045;-75
2020/12/28 04:24:22;;;;;;;0.85;0.65;;;;;;;20.36;40.88;96114.66;4993628;28;20045;-77
2020/12/28 04:26:48;;;;;;;1.63;1.10;;;;;;;20.35;40.91;96113.00;4994642;28;20042;-74
2020/12/28 04:29:14;;;;;;;1.58;1.00;;;;;;;20.40;40.88;96112.59;4993453;28;20085;-72
2020/12/28 04:31:41;;;;;;;0.88;0.68;;;;;;;20.41;40.90;96116.06;4994606;28;20038;-73
2020/12/28 04:34:07;;;;;;;1.52;0.82;;;;;;;20.38;41.07;96109.28;4994571;28;20559;-74
2020/12/28 04:36:33;;;;;;;1.73;0.98;;;;;;;20.38;40.78;96110.09;5021247;28;20494;-74
2020/12/28 04:38:58;;;;;;;1.45;1.10;;;;;;;20.36;40.79;96098.88;5034060;28;20092;-73
2020/12/28 04:41:27;;;;;;;1.58;1.10;;;;;;;20.36;40.72;96105.94;5033856;28;20049;-75
2020/12/28 04:43:53;;;;;;;1.42;0.95;;;;;;;20.41;40.83;96105.53;5033888;28;20042;-78
2020/12/28 04:46:18;;;;;;;1.20;0.80;;;;;;;20.41;40.60;96101.09;4995267;28;20042;-75
2020/12/28 04:48:44;;;;;;;1.30;0.85;;;;;;;20.37;40.66;96111.06;4993731;28;20075;-77
2020/12/28 04:51:10;;;;;;;1.10;0.70;;;;;;;20.36;40.79;96104.13;4994226;28;20061;-75
2020/12/28 04:53:36;;;;;;;1.92;0.90;;;;;;;20.40;40.79;96104.69;4994498;28;20414;-75
2020/12/28 04:56:01;;;;;;;0.95;0.70;;;;;;;20.39;40.76;96100.44;4994350;28;20035;-77
2020/12/28 04:58:27;;;;;;;1.27;0.77;;;;;;;20.34;40.72;96100.81;4993971;28;20038;-75
2020/12/28 05:01:00;;;;;;;0.88;0.65;;;;;;;20.37;40.72;96104.97;4993667;28;20037;-77
2020/12/28 05:03:29;;;;;;;1.35;0.77;;;;;;;20.39;40.60;96097.81;4993425;28;20632;-73
2020/12/28 05:05:55;;;;;;;1.52;0.90;;;;;;;20.38;40.61;96102.22;4993907;28;20077;-75
2020/12/28 05:08:22;;;;;;;1.15;0.88;;;;;;;20.38;40.61;96101.41;4993795;28;20062;-75
2020/12/28 05:10:48;;;;;;;0.95;0.70;;;;;;;20.39;40.85;96100.44;4993962;28;20134;-76
2020/12/28 05:13:17;;;;;;;1.88;0.82;;;;;;;20.39;40.70;96096.00;4993983;28;20039;-74
2020/12/28 05:15:57;;;;;;;1.05;0.70;;;;;;;20.33;40.90;96096.50;4993702;28;20038;-76
2020/12/28 05:18:24;;;;;;;1.30;0.70;;;;;;;20.36;40.84;96092.81;4993657;28;20035;-72
2020/12/28 05:20:50;;;;;;;1.70;0.75;;;;;;;20.37;40.64;96100.53;4993280;28;20582;-73
2020/12/28 05:23:18;;;;;;;1.45;0.65;;;;;;;20.37;40.84;96090.03;4993766;28;20042;-73
2020/12/28 05:25:51;;;;;;;1.80;0.98;;;;;;;20.36;40.64;96096.25;4993699;28;20674;-75
2020/12/28 05:28:26;;;;;;;1.92;0.90;;;;;;;20.33;40.95;96096.50;4993630;28;20112;-74
2020/12/28 05:30:51;;;;;;;1.35;0.85;;;;;;;20.33;40.71;96082.53;4993554;28;20034;-74
2020/12/28 05:33:18;;;;;;;1.88;0.80;;;;;;;20.35;40.66;96084.06;4993287;28;20041;-76
2020/12/28 05:35:43;;;;;;;1.13;0.77;;;;;;;20.37;40.87;96087.41;5006645;28;20038;-74
2020/12/28 05:38:09;;;;;;;1.25;0.80;;;;;;;20.31;40.88;96073.97;5032613;28;20046;-75
2020/12/28 05:40:36;;;;;;;2.13;0.60;;;;;;;20.34;40.72;96079.78;5032710;28;20142;-73
2020/12/28 05:43:03;;;;;;;0.93;0.70;;;;;;;20.34;40.83;96082.41;5030713;28;20401;-74
2020/12/28 05:45:28;;;;;;;2.30;1.00;;;;;;;20.33;40.96;96083.38;5006041;28;20046;-76
2020/12/28 05:47:58;;;;;;;1.63;1.05;;;;;;;20.29;40.78;96079.38;4991220;28;20038;-74
2020/12/28 05:50:30;;;;;;;2.22;0.90;;;;;;;20.31;40.61;96080.06;4990991;28;20089;-71
2020/12/28 05:53:01;;;;;;;1.52;0.73;;;;;;;20.34;40.99;96076.31;4991828;28;20038;-76
2020/12/28 05:55:29;;;;;;;1.17;0.40;;;;;;;20.33;40.70;96077.28;4993169;28;20038;-77
2020/12/28 05:57:56;;;;;;;1.15;0.70;;;;;;;20.31;40.75;96077.44;4991691;28;20039;-75
2020/12/28 06:00:21;;;;;;;1.85;0.70;;;;;;;20.32;40.69;96081.69;4991062;28;20030;-72
2020/12/28 06:02:47;;;;;;;1.98;0.70;;;;;;;20.34;40.85;96086.84;4989368;28;20376;-76
2020/12/28 06:05:15;;;;;;;0.85;0.45;;;;;;;20.30;40.76;96083.66;4991629;28;20039;-74
2020/12/28 06:07:40;;;;;;;1.02;0.70;;;;;;;20.32;40.90;96080.88;4991352;28;20085;-75
2020/12/28 06:10:07;;;;;;;1.25;0.70;;;;;;;20.33;40.79;96086.00;4991628;28;20516;-72
2020/12/28 06:12:33;;;;;;;1.90;0.55;;;;;;;20.33;40.93;96086.00;4992155;28;20038;-75
2020/12/28 06:14:59;;;;;;;1.02;0.60;;;;;;;20.32;40.71;96083.50;4992552;28;20526;-74
2020/12/28 06:17:33;;;;;;;1.75;0.65;;;;;;;20.33;40.77;96082.53;4992270;28;20044;-78
2020/12/28 06:20:02;;;;;;;;;;;;;;;20.31;40.77;96077.44;4992884;28;20038;-75
2020/12/28 06:22:28;;;;;;;1.38;0.80;;;;;;;20.33;40.86;96087.81;4992550;28;19920;-74
2020/12/28 06:25:00;;;;;;;1.80;0.50;;;;;;;20.28;40.84;96084.72;4992825;28;20515;-73
2020/12/28 06:27:27;;;;;;;1.88;0.70;;;;;;;20.26;40.96;96078.78;4992643;28;20093;-77
2020/12/28 06:29:53;;;;;;;2.15;0.80;;;;;;;20.24;40.77;96085.00;4992621;28;20403;-73
2020/12/28 06:32:18;;;;;;;0.93;0.57;;;;;;;20.22;41.09;96091.34;5007158;28;20034;-74
2020/12/28 06:34:45;;;;;;;1.33;0.60;;;;;;;20.19;41.03;96086.34;4992687;28;20042;-76
2020/12/28 06:37:11;;;;;;;0.85;0.50;;;;;;;20.23;40.94;96088.63;5029431;28;20124;-76
2020/12/28 06:39:36;;;;;;;1.45;0.68;;;;;;;20.19;41.20;96087.22;5030476;28;20409;-72
2020/12/28 06:42:12;;;;;;;1.65;0.98;;;;;;;20.18;40.94;96082.91;5031556;28;20040;-72
2020/12/28 06:44:39;;;;;;;1.75;0.75;;;;;;;20.20;40.96;96085.41;5026012;28;20113;-74
2020/12/28 06:47:21;;;;;;;1.00;0.40;;;;;;;20.15;41.03;96077.09;5009542;28;20569;-73
2020/12/28 06:49:47;;;;;;;1.95;0.60;;;;;;;20.17;41.11;96080.41;5009462;28;20437;-75
2020/12/28 06:52:13;;;;;;;1.08;0.75;;;;;;;20.17;40.90;96081.25;5001638;28;20077;-76
2020/12/28 06:54:39;;;;;;;1.25;0.70;;;;;;;20.16;41.09;96078.75;4992097;28;20065;-74
2020/12/28 06:57:06;;;;;;;1.92;0.82;;;;;;;20.17;41.08;96076.00;4991019;28;20100;-73
2020/12/28 06:59:32;;;;;;;0.70;0.55;;;;;;;20.18;41.14;96085.53;4991853;28;20048;-72
2020/12/28 07:02:00;;;;;;;2.45;0.88;;;;;;;20.19;41.14;96081.94;4992031;28;20034;-73
2020/12/28 07:04:27;;;;;;;2.75;0.75;;;;;;;20.21;41.03;96094.94;4992166;28;20031;-75
2020/12/28 07:07:10;;;;;;;1.85;0.85;;;;;;;20.19;40.79;96092.47;4992110;28;20042;-75
2020/12/28 07:09:36;;;;;;;1.27;0.77;;;;;;;20.26;40.87;96098.03;4992189;28;20047;-76
2020/12/28 07:12:11;;;;;;;1.52;0.70;;;;;;;20.27;40.89;96104.09;4991954;28;20035;-74
2020/12/28 07:14:37;;;;;;;1.77;0.68;;;;;;;20.29;40.88;96097.75;4991924;28;20113;-73
2020/12/28 07:17:03;;;;;;;0.77;0.50;;;;;;;20.27;40.73;96097.06;4992217;28;20406;-76
2020/12/28 07:19:29;;;;;;;4.25;1.00;;;;;;;20.29;40.91;96097.75;4991709;28;20496;-72
2020/12/28 07:21:54;;;;;;;1.00;0.57;;;;;;;20.30;40.75;96096.81;4992182;28;20042;-74
2020/12/28 07:24:20;;;;;;;1.25;0.63;;;;;;;20.31;40.64;96097.63;4992130;28;20384;-73
2020/12/28 07:26:47;;;;;;;8.85;0.90;;;;;;;20.31;40.75;96095.00;4991855;28;20038;-74
2020/12/28 07:29:14;;;;;;;1.80;0.60;;;;;;;20.28;40.85;96103.97;4991835;28;20107;-72
2020/12/28 07:31:41;;;;;;;1.95;0.68;;;;;;;20.29;40.53;96102.16;4991822;28;20117;-75
2020/12/28 07:34:07;;;;;;;2.30;0.90;;;;;;;20.30;40.72;96109.09;4992214;28;20097;-78
2020/12/28 07:36:34;;;;;;;0.93;0.60;;;;;;;20.23;40.82;96107.00;4991938;28;20034;-74
2020/12/28 07:39:00;;;;;;;1.42;0.80;;;;;;;20.23;40.77;96106.16;4991870;28;20038;-77
2020/12/28 07:41:27;;;;;;;1.95;0.90;;;;;;;20.22;40.75;96097.47;4991683;28;20056;-74
2020/12/28 07:43:57;;;;;;;3.08;1.00;;;;;;;20.24;40.85;96105.22;4991655;28;20039;-76
2020/12/28 07:46:32;;;;;;;1.30;0.85;;;;;;;20.22;40.58;96105.34;4992006;28;20084;-78
2020/12/28 07:49:03;;;;;;;2.20;0.98;;;;;;;20.20;40.63;96104.66;4991506;28;20026;-78
2020/12/28 07:51:32;;;;;;;1.40;0.70;;;;;;;20.18;40.84;96106.56;4995316;28;20041;-74
2020/12/28 07:54:08;;;;;;;1.73;0.68;;;;;;;20.20;40.81;96109.06;5010120;28;20061;-77
2020/12/28 07:56:43;;;;;;;1.58;0.70;;;;;;;20.19;40.63;96115.28;5011406;28;20085;-73
2020/12/28 07:59:27;;;;;;;1.70;0.82;;;;;;;20.19;40.83;96118.75;5014338;28;20033;-77
2020/12/28 08:01:53;;;;;;;;;;;;;;;20.17;40.94;96115.41;5015176;28;20052;-76
2020/12/28 08:04:22;;;;;;;1.27;0.60;;;;;;;20.19;40.73;96123.16;4999809;28;20457;-74
2020/12/28 08:06:48;;;;;;;1.38;0.70;;;;;;;20.20;40.70;96122.19;4995086;28;20097;-76
2020/12/28 08:09:14;;;;;;;1.23;0.50;;;;;;;20.23;40.84;96114.06;5008819;28;20070;-74
2020/12/28 08:11:41;;;;;;;1.75;0.55;;;;;;;20.48;40.40;96127.69;4994778;28;20085;-74
2020/12/28 08:14:10;;;;;;;1.70;0.80;;;;;;;20.66;39.91;96125.28;4995227;28;20066;-75
2020/12/28 08:16:35;;;;;;;1.20;0.52;;;;;;;20.75;39.91;96128.91;4994831;28;20450;-72
2020/12/28 08:19:01;;;;;;;1.90;0.90;;;;;;;20.67;40.06;96135.66;4994589;28;20042;-76
2020/12/28 08:21:43;;;;;;;1.20;0.68;;;;;;;20.60;40.22;96126.66;4994888;28;20458;-75
2020/12/28 08:24:19;;;;;;;1.20;0.65;;;;;;;20.55;40.23;96131.47;4994650;28;20534;-73
2020/12/28 08:26:46;;;;;;;1.95;0.77;;;;;;;20.63;40.20;96125.53;4994488;28;20038;-76
2020/12/28 08:29:11;;;;;;;2.05;0.60;;;;;;;20.73;39.84;96134.28;4994776;28;20038;-76
2020/12/28 08:31:37;;;;;;;6.90;0.90;;;;;;;20.74;40.06;96130.69;4994676;28;20380;-72
2020/12/28 08:34:09;;;;;;;1.35;0.60;;;;;;;20.75;40.15;96135.00;4994594;28;20061;-77
2020/12/28 08:36:37;;;;;;;2.05;1.00;;;;;;;20.73;39.98;96134.28;5022269;28;20046;-74
2020/12/28 08:39:15;;;;;;;2.72;0.90;;;;;;;20.73;40.02;96133.47;5033757;28;20050;-77
2020/12/28 08:41:52;;;;;;;2.03;1.20;;;;;;;20.76;40.13;96126.16;5033584;28;20046;-73
2020/12/28 08:44:30;;;;;;;2.75;0.70;;;;;;;20.83;39.96;96126.44;5027201;28;20033;-72
2020/12/28 08:46:56;;;;;;;2.38;0.90;;;;;;;20.86;39.88;96125.38;4992578;28;20038;-75
2020/12/28 08:49:32;;;;;;;2.90;1.08;;;;;;;20.75;40.26;96121.00;4992253;28;20054;-75
2020/12/28 08:52:17;;;;;;;1.13;0.75;;;;;;;20.74;39.95;96119.34;4992779;28;20027;-73
2020/12/28 08:54:52;;;;;;;2.53;0.90;;;;;;;20.73;40.21;96117.69;4994252;28;20034;-75
2020/12/28 08:57:29;;;;;;;1.50;0.85;;;;;;;20.75;40.22;96113.13;4994155;28;20046;-73
2020/12/28 08:59:56;;;;;;;2.08;0.80;;;;;;;20.80;40.05;96113.56;4994189;28;20038;-73
2020/12/28 09:02:23;;;;;;;1.85;0.95;;;;;;;20.78;39.99;96113.69;4994130;28;20042;-75
2020/12/28 09:04:49;;;;;;;7.90;1.10;;;;;;;20.75;40.17;96107.84;4993787;28;20042;-77
2020/12/28 09:07:16;;;;;;;5.30;0.98;;;;;;;20.74;40.20;96111.44;4994014;28;20053;-73
2020/12/28 09:09:44;;;;;;;4.60;1.05;;;;;;;20.68;40.26;96112.81;4993010;28;20046;-72
2020/12/28 09:12:11;;;;;;;2.42;1.10;;;;;;;20.69;40.36;96114.50;4994131;28;20053;-74
2020/12/28 09:14:36;;;;;;;4.40;1.20;;;;;;;20.68;40.46;96103.13;4993886;28;20411;-76
2020/12/28 09:17:03;;;;;;;4.82;1.33;;;;;;;20.73;40.31;96100.09;4992775;28;20045;-73
2020/12/28 09:19:28;;;;;;;9.90;1.05;;;;;;;20.75;40.06;96102.59;4994690;28;20046;-71
2020/12/28 09:21:55;;;;;;;4.90;1.10;;;;;;;20.77;40.46;96100.69;5005786;28;20065;-78
2020/12/28 09:24:20;;;;;;;2.97;1.30;;;;;;;20.76;40.22;96107.75;4993570;28;20507;-73
2020/12/28 09:26:46;;;;;;;3.00;1.00;;;;;;;20.68;40.50;96111.00;4993501;28;20030;-74
2020/12/28 09:29:11;;;;;;;2.97;1.00;;;;;;;20.69;40.56;96117.94;4993713;28;20067;-76
2020/12/28 09:31:37;;;;;;;2.55;0.98;;;;;;;20.65;40.46;96107.81;4993525;28;20049;-72
2020/12/28 09:34:02;;;;;;;2.30;0.90;;;;;;;20.62;40.54;96114.19;4999118;28;20037;-79
2020/12/28 09:36:28;;;;;;;1.63;1.00;;;;;;;20.61;40.67;96117.78;5025940;28;20046;-74
2020/12/28 09:38:53;;;;;;;6.63;2.05;;;;;;;20.63;40.83;96115.03;5032540;28;20112;-77
2020/12/28 09:41:18;;;;;;;4.57;1.20;;;;;;;20.58;40.83;96115.44;5011999;28;20503;-74
2020/12/28 09:43:44;;;;;;;3.03;1.02;;;;;;;20.63;40.61;96121.09;5013943;28;20116;-78
2020/12/28 09:46:10;;;;;;;5.60;1.65;;;;;;;20.63;40.55;96115.84;5009822;28;20048;-73
2020/12/28 09:48:37;;;;;;;5.85;1.00;;;;;;;20.64;40.72;96121.94;5023869;28;20402;-73
2020/12/28 09:51:04;;;;;;;2.58;1.10;;;;;;;20.61;40.71;96123.06;4997643;28;20030;-73
2020/12/28 09:53:30;;;;;;;5.93;1.58;;;;;;;20.61;40.72;96120.44;5001640;28;20121;-73
2020/12/28 09:55:56;;;;;;;9.32;1.27;;;;;;;20.59;40.86;96124.97;5011286;28;20550;-76
2020/12/28 09:58:21;;;;;;;2.38;1.33;;;;;;;20.57;41.04;96119.03;5012812;28;20410;-72
2020/12/28 10:00:46;;;;;;;2.20;1.13;;;;;;;20.57;40.89;96107.66;5012534;28;20395;-76
2020/12/28 10:03:12;;;;;;;3.15;1.35;;;;;;;20.62;40.94;96097.56;5006407;28;20042;-73
2020/12/28 10:05:37;;;;;;;6.50;1.30;;;;;;;20.61;40.98;96099.38;4992896;28;20041;-75
2020/12/28 10:08:03;;;;;;;5.32;1.17;;;;;;;20.61;40.75;96096.75;4992562;28;20549;-78
2020/12/28 10:10:28;;;;;;;4.15;1.30;;;;;;;20.61;40.89;96102.00;4992451;28;20530;-74
2020/12/28 10:12:54;;;;;;;2.38;1.00;;;;;;;20.60;40.67;96095.09;4992540;28;20041;-73
2020/12/28 10:15:19;;;;;;;3.88;1.00;;;;;;;20.61;40.74;96098.53;4995547;28;20508;-72
2020/12/28 10:18:31;;;;;;;3.85;1.15;;;;;;;20.60;40.74;96091.59;5012258;28;20038;-73
2020/12/28 10:20:57;;;;;;;9.05;1.65;;;;;;;20.68;40.68;96089.97;4985625;28;20041;-73
2020/12/28 10:23:22;;;;;;;4.60;1.73;;;;;;;20.65;40.65;96098.13;5010102;28;20050;-77
2020/12/28 10:25:47;;;;;;;6.88;1.00;;;;;;;20.65;40.72;96097.31;5006952;28;20403;-74
2020/12/28 10:28:13;;;;;;;2.28;1.00;;;;;;;20.63;40.61;96089.53;5015232;28;20639;-77
2020/12/28 10:30:38;;;;;;;2.63;1.00;;;;;;;20.62;40.85;96098.41;5031244;28;20068;-72
2020/12/28 10:33:04;;;;;;;4.13;1.05;;;;;;;20.64;40.71;96095.63;4999709;28;20045;-74
2020/12/28 10:35:29;;;;;;;3.70;0.98;;;;;;;20.64;40.58;96090.38;5002084;28;20099;-74
2020/12/28 10:37:57;;;;;;;3.25;1.00;;;;;;;20.63;40.85;96083.47;5030214;28;20053;-78
2020/12/28 10:40:23;;;;;;;5.00;1.25;;;;;;;20.62;40.78;96087.91;5031628;28;20104;-73
2020/12/28 10:42:48;;;;;;;4.85;0.98;;;;;;;20.62;40.61;96080.00;5012018;28;20161;-75
2020/12/28 10:45:14;;;;;;;3.75;1.30;;;;;;;20.62;40.62;96076.53;4995546;28;20053;-72
2020/12/28 10:47:39;;;;;;;3.85;1.20;;;;;;;20.62;40.52;96080.00;4999454;28;20041;-73
2020/12/28 10:50:05;;;;;;;3.03;1.08;;;;;;;20.63;40.64;96079.00;4992003;28;20543;-73
2020/12/28 10:52:30;;;;;;;7.03;1.27;;;;;;;20.63;40.38;96079.00;4998681;28;20038;-73
2020/12/28 10:54:55;;;;;;;1.80;0.80;;;;;;;20.63;40.59;96078.19;4992068;28;20427;-73
2020/12/28 10:57:21;;;;;;;3.67;1.17;;;;;;;20.63;40.51;96076.38;4992025;28;20031;-73
2020/12/28 10:59:46;;;;;;;4.55;1.10;;;;;;;20.66;40.32;96078.75;4992055;28;20121;-73
2020/12/28 11:02:12;;;;;;;2.72;1.05;;;;;;;20.65;40.42;96074.44;4992444;28;20038;-72
2020/12/28 11:04:37;;;;;;;3.15;1.25;;;;;;;20.65;40.51;96082.34;4993048;28;20026;-76
2020/12/28 11:07:02;;;;;;;4.72;1.20;;;;;;;20.67;40.14;96077.78;4991477;28;20407;-73
2020/12/28 11:09:28;;;;;;;3.38;1.20;;;;;;;20.69;40.30;96077.66;4991669;28;20042;-73
2020/12/28 11:11:53;;;;;;;5.28;0.82;;;;;;;20.70;40.25;96074.06;4992113;28;20061;-74
2020/12/28 11:14:20;;;;;;;2.42;1.20;;;;;;;20.74;40.03;96066.72;4990707;28;20383;-76
2020/12/28 11:16:46;;;;;;;5.25;1.65;;;;;;;20.73;40.15;96062.44;4990647;28;20487;-76
2020/12/28 11:19:11;;;;;;;3.90;1.30;;;;;;;20.75;40.10;96060.50;5004641;28;20034;-78
2020/12/28 11:21:36;;;;;;;2.33;1.20;;;;;;;20.78;39.93;96062.91;4993683;28;20038;-72
2020/12/28 11:24:02;;;;;;;3.42;0.98;;;;;;;20.78;40.17;96057.63;4991990;28;20061;-74
2020/12/28 11:26:29;;;;;;;3.90;1.23;;;;;;;20.80;39.92;96055.66;4991552;28;20044;-74
2020/12/28 11:28:55;;;;;;;2.13;1.00;;;;;;;20.80;39.93;96053.03;4991833;28;20074;-73
2020/12/28 11:31:21;;;;;;;3.53;1.13;;;;;;;20.78;40.01;96044.47;4991981;28;20128;-75
2020/12/28 11:33:47;;;;;;;4.45;0.82;;;;;;;20.78;39.88;96041.84;4994921;28;20518;-75